Raleigh, NC

11:54 AM EDT on August 25, 2016 (GMT -0400)
| | Change Station

Elev -9999 ft 0.00 °N, 0.00 °E | Updated

Clear
Clear
86 °F
Feels Like 88 °F
N
5
Wind Variable Wind from SW
Gusts mph

Today
High -- | Low -- °F
--% Chance of Precip.
Yesterday
High -- | Low -- °F
Precip. -- in
Pressure 30.16 in
Visibility 10.0 miles
Clouds Mostly Cloudy 25000 ft
Heat Index 88 °F
Dew Point 66 °F
Humidity 52%
Rainfall --
Snow Depth Not available.
6:41 AM 7:51 PM
Last Quarter, 44% visible
METAR KRDU 251551Z 19007KT 10SM BKN250 30/18 A3018 RMK AO2 SLP212 T03000178
Pressure 30.16 in
Visibility 10.0 miles
Clouds Mostly Cloudy 25000 ft
Heat Index 88 °F
Dew Point 66 °F
Humidity 52%
Rainfall --
Snow Depth Not available.
6:41 AM 7:51 PM
Last Quarter, 44% visible
METAR KRDU 251551Z 19007KT 10SM BKN250 30/18 A3018 RMK AO2 SLP212 T03000178

10-Day Weather Forecast

Almanac

Astronomy

Aug. 25, 2016 Rise Set
Actual Time
Civil Twilight
Nautical Twilight
Astronomical Twilight
Moon
Length of Visible Light
Length of Day
Tomorrow will be .
, % of the Moon is Illuminated

Today's Extremes

State Highs State Lows

Community

WunderPhotos

Upload Photos

1,934,867 photos uploaded!

WunderBlog® & News

Nearby

Air Quality

  Air Quality AQ Index Pollutant
Not available.

Snow Depth

Station Depth Elevation

Earthquake Activity

City Distance Mag. Time & Date
Minimum magnitude displayed is 2.5.

Coastal Water Temperatures

Place Temperature

Stations

Nearby Weather Stations

Station Location Temp. Windchill Dew Point Humidity Wind Precip. Elev Updated Type
                   

Watches & Warnings

There are currently no watches in effect.